sensor_id;sensor_type;location;lat;lon;timestamp;temperature;humidity
49184;DHT22;35021;49.214;12.270;2022-11-15T00:00:54;21.60;33.00
49184;DHT22;35021;49.214;12.270;2022-11-15T00:03:24;21.60;33.00
49184;DHT22;35021;49.214;12.270;2022-11-15T00:05:51;21.60;33.00
49184;DHT22;35021;49.214;12.270;2022-11-15T00:08:18;21.60;33.00
49184;DHT22;35021;49.214;12.270;2022-11-15T00:10:55;21.50;33.00
49184;DHT22;35021;49.214;12.270;2022-11-15T00:13:23;21.60;33.10
49184;DHT22;35021;49.214;12.270;2022-11-15T00:15:50;21.60;33.10
49184;DHT22;35021;49.214;12.270;2022-11-15T00:18:17;21.60;33.10
49184;DHT22;35021;49.214;12.270;2022-11-15T00:20:44;21.50;33.10
49184;DHT22;35021;49.214;12.270;2022-11-15T00:23:11;21.60;33.20
49184;DHT22;35021;49.214;12.270;2022-11-15T00:25:38;21.60;33.20
49184;DHT22;35021;49.214;12.270;2022-11-15T00:28:04;21.60;33.10
49184;DHT22;35021;49.214;12.270;2022-11-15T00:30:41;21.60;33.10
49184;DHT22;35021;49.214;12.270;2022-11-15T00:33:08;21.60;33.10
49184;DHT22;35021;49.214;12.270;2022-11-15T00:35:36;21.60;33.10
49184;DHT22;35021;49.214;12.270;2022-11-15T00:38:03;21.60;33.10
49184;DHT22;35021;49.214;12.270;2022-11-15T00:40:30;21.50;33.00
49184;DHT22;35021;49.214;12.270;2022-11-15T00:42:57;21.50;33.00
49184;DHT22;35021;49.214;12.270;2022-11-15T00:45:24;21.50;33.00
49184;DHT22;35021;49.214;12.270;2022-11-15T00:47:52;21.50;33.00
49184;DHT22;35021;49.214;12.270;2022-11-15T00:50:18;21.50;33.00
49184;DHT22;35021;49.214;12.270;2022-11-15T00:52:45;21.50;33.00
49184;DHT22;35021;49.214;12.270;2022-11-15T00:55:17;21.50;32.90
49184;DHT22;35021;49.214;12.270;2022-11-15T00:57:44;21.50;32.90
49184;DHT22;35021;49.214;12.270;2022-11-15T01:00:12;21.50;32.80
49184;DHT22;35021;49.214;12.270;2022-11-15T01:02:39;21.50;32.80
49184;DHT22;35021;49.214;12.270;2022-11-15T01:05:07;21.50;32.80
49184;DHT22;35021;49.214;12.270;2022-11-15T01:07:34;21.50;32.80
49184;DHT22;35021;49.214;12.270;2022-11-15T01:10:01;21.50;32.80
49184;DHT22;35021;49.214;12.270;2022-11-15T01:12:28;21.50;32.90
49184;DHT22;35021;49.214;12.270;2022-11-15T01:14:55;21.50;32.80
49184;DHT22;35021;49.214;12.270;2022-11-15T01:17:30;21.50;32.90
49184;DHT22;35021;49.214;12.270;2022-11-15T01:19:57;21.50;33.00
49184;DHT22;35021;49.214;12.270;2022-11-15T01:22:24;21.50;33.00
49184;DHT22;35021;49.214;12.270;2022-11-15T01:24:51;21.40;33.00
49184;DHT22;35021;49.214;12.270;2022-11-15T01:27:18;21.40;33.00
49184;DHT22;35021;49.214;12.270;2022-11-15T01:29:45;21.40;33.10
49184;DHT22;35021;49.214;12.270;2022-11-15T01:32:12;21.40;33.20
49184;DHT22;35021;49.214;12.270;2022-11-15T01:34:39;21.30;33.20
49184;DHT22;35021;49.214;12.270;2022-11-15T01:37:06;21.30;33.30
49184;DHT22;35021;49.214;12.270;2022-11-15T01:39:33;21.30;33.30
49184;DHT22;35021;49.214;12.270;2022-11-15T01:42:00;21.30;33.30
49184;DHT22;35021;49.214;12.270;2022-11-15T01:44:50;21.30;33.30
49184;DHT22;35021;49.214;12.270;2022-11-15T01:47:26;21.30;33.30
49184;DHT22;35021;49.214;12.270;2022-11-15T01:49:55;21.30;33.30
49184;DHT22;35021;49.214;12.270;2022-11-15T01:52:26;21.30;33.40
49184;DHT22;35021;49.214;12.270;2022-11-15T01:55:17;21.30;33.30
49184;DHT22;35021;49.214;12.270;2022-11-15T01:57:47;21.30;33.30
49184;DHT22;35021;49.214;12.270;2022-11-15T02:00:17;21.30;33.30
49184;DHT22;35021;49.214;12.270;2022-11-15T02:02:46;21.30;33.40
49184;DHT22;35021;49.214;12.270;2022-11-15T02:05:14;21.30;33.40
49184;DHT22;35021;49.214;12.270;2022-11-15T02:07:41;21.30;33.50
49184;DHT22;35021;49.214;12.270;2022-11-15T02:10:11;21.20;33.50
49184;DHT22;35021;49.214;12.270;2022-11-15T02:12:40;21.20;33.60
49184;DHT22;35021;49.214;12.270;2022-11-15T02:15:08;21.20;33.50
49184;DHT22;35021;49.214;12.270;2022-11-15T02:29:09;21.20;33.60
49184;DHT22;35021;49.214;12.270;2022-11-15T02:32:20;21.20;33.60
49184;DHT22;35021;49.214;12.270;2022-11-15T02:40:17;21.10;33.70
49184;DHT22;35021;49.214;12.270;2022-11-15T02:42:54;21.10;33.80
49184;DHT22;35021;49.214;12.270;2022-11-15T02:45:46;21.10;33.90
49184;DHT22;35021;49.214;12.270;2022-11-15T02:48:15;21.10;34.00
49184;DHT22;35021;49.214;12.270;2022-11-15T02:50:44;21.10;34.00
49184;DHT22;35021;49.214;12.270;2022-11-15T02:53:11;21.20;34.10
49184;DHT22;35021;49.214;12.270;2022-11-15T02:55:58;21.20;34.00
49184;DHT22;35021;49.214;12.270;2022-11-15T03:04:44;21.50;33.80
49184;DHT22;35021;49.214;12.270;2022-11-15T03:10:15;21.60;33.60
49184;DHT22;35021;49.214;12.270;2022-11-15T03:12:57;21.60;33.50
49184;DHT22;35021;49.214;12.270;2022-11-15T03:15:38;21.60;33.50
49184;DHT22;35021;49.214;12.270;2022-11-15T03:20:42;21.60;33.60
49184;DHT22;35021;49.214;12.270;2022-11-15T03:23:10;21.50;33.60
49184;DHT22;35021;49.214;12.270;2022-11-15T03:25:43;21.50;33.60
49184;DHT22;35021;49.214;12.270;2022-11-15T03:28:16;21.50;33.60
49184;DHT22;35021;49.214;12.270;2022-11-15T03:30:44;21.50;33.50
49184;DHT22;35021;49.214;12.270;2022-11-15T03:33:12;21.60;33.60
49184;DHT22;35021;49.214;12.270;2022-11-15T03:35:41;21.60;33.40
49184;DHT22;35021;49.214;12.270;2022-11-15T03:38:24;21.70;33.30
49184;DHT22;35021;49.214;12.270;2022-11-15T03:40:59;21.70;33.20
49184;DHT22;35021;49.214;12.270;2022-11-15T03:43:52;21.80;33.20
49184;DHT22;35021;49.214;12.270;2022-11-15T03:46:28;21.80;33.10
49184;DHT22;35021;49.214;12.270;2022-11-15T03:49:11;21.80;33.10
49184;DHT22;35021;49.214;12.270;2022-11-15T03:51:39;21.80;33.00
49184;DHT22;35021;49.214;12.270;2022-11-15T03:54:07;21.80;33.00
49184;DHT22;35021;49.214;12.270;2022-11-15T03:56:33;21.80;33.00
49184;DHT22;35021;49.214;12.270;2022-11-15T03:59:00;21.70;33.00
49184;DHT22;35021;49.214;12.270;2022-11-15T04:01:28;21.70;33.10
49184;DHT22;35021;49.214;12.270;2022-11-15T04:03:54;21.70;33.10
49184;DHT22;35021;49.214;12.270;2022-11-15T04:06:21;21.70;33.20
49184;DHT22;35021;49.214;12.270;2022-11-15T04:08:48;21.70;33.10
49184;DHT22;35021;49.214;12.270;2022-11-15T04:11:16;21.70;33.10
49184;DHT22;35021;49.214;12.270;2022-11-15T04:13:43;21.70;33.20
49184;DHT22;35021;49.214;12.270;2022-11-15T04:16:10;21.70;33.10
49184;DHT22;35021;49.214;12.270;2022-11-15T04:18:37;21.70;33.20
49184;DHT22;35021;49.214;12.270;2022-11-15T04:21:04;21.70;33.30
49184;DHT22;35021;49.214;12.270;2022-11-15T04:23:49;21.70;33.40
49184;DHT22;35021;49.214;12.270;2022-11-15T04:26:35;21.70;33.40
49184;DHT22;35021;49.214;12.270;2022-11-15T04:29:01;21.70;33.30
49184;DHT22;35021;49.214;12.270;2022-11-15T04:31:47;21.70;33.30
49184;DHT22;35021;49.214;12.270;2022-11-15T04:34:13;21.70;33.30
49184;DHT22;35021;49.214;12.270;2022-11-15T04:36:40;21.70;33.30
49184;DHT22;35021;49.214;12.270;2022-11-15T04:39:26;21.60;33.30
49184;DHT22;35021;49.214;12.270;2022-11-15T04:41:52;21.60;33.30
49184;DHT22;35021;49.214;12.270;2022-11-15T04:44:19;21.50;33.30
49184;DHT22;35021;49.214;12.270;2022-11-15T04:46:46;21.50;33.40
49184;DHT22;35021;49.214;12.270;2022-11-15T04:49:13;21.40;33.40
49184;DHT22;35021;49.214;12.270;2022-11-15T04:51:39;21.40;33.40
49184;DHT22;35021;49.214;12.270;2022-11-15T04:54:06;21.30;33.40
49184;DHT22;35021;49.214;12.270;2022-11-15T04:56:33;21.40;33.40
49184;DHT22;35021;49.214;12.270;2022-11-15T04:59:01;21.40;33.40
49184;DHT22;35021;49.214;12.270;2022-11-15T05:01:28;21.40;33.30
49184;DHT22;35021;49.214;12.270;2022-11-15T05:03:55;21.40;33.20
49184;DHT22;35021;49.214;12.270;2022-11-15T05:06:40;21.40;33.20
49184;DHT22;35021;49.214;12.270;2022-11-15T05:09:07;21.40;33.20
49184;DHT22;35021;49.214;12.270;2022-11-15T05:11:34;21.50;33.20
49184;DHT22;35021;49.214;12.270;2022-11-15T05:14:00;21.50;33.20
49184;DHT22;35021;49.214;12.270;2022-11-15T05:16:27;21.50;33.20
49184;DHT22;35021;49.214;12.270;2022-11-15T05:18:54;21.50;33.10
49184;DHT22;35021;49.214;12.270;2022-11-15T05:21:22;21.50;33.10
49184;DHT22;35021;49.214;12.270;2022-11-15T05:23:49;21.50;33.10
49184;DHT22;35021;49.214;12.270;2022-11-15T05:26:17;21.40;33.00
49184;DHT22;35021;49.214;12.270;2022-11-15T05:28:44;21.40;33.20
49184;DHT22;35021;49.214;12.270;2022-11-15T05:31:14;21.30;33.20
49184;DHT22;35021;49.214;12.270;2022-11-15T05:33:42;21.30;33.30
49184;DHT22;35021;49.214;12.270;2022-11-15T05:38:54;21.20;33.20
49184;DHT22;35021;49.214;12.270;2022-11-15T05:41:47;21.20;33.20
49184;DHT22;35021;49.214;12.270;2022-11-15T05:44:15;21.30;33.20
49184;DHT22;35021;49.214;12.270;2022-11-15T05:46:43;21.30;33.20
49184;DHT22;35021;49.214;12.270;2022-11-15T05:49:13;21.30;33.10
49184;DHT22;35021;49.214;12.270;2022-11-15T05:51:44;21.30;33.00
49184;DHT22;35021;49.214;12.270;2022-11-15T05:54:13;21.40;32.90
49184;DHT22;35021;49.214;12.270;2022-11-15T05:56:40;21.40;32.90
49184;DHT22;35021;49.214;12.270;2022-11-15T05:59:08;21.50;32.90
49184;DHT22;35021;49.214;12.270;2022-11-15T06:01:36;21.50;32.80
49184;DHT22;35021;49.214;12.270;2022-11-15T06:04:03;21.50;32.80
49184;DHT22;35021;49.214;12.270;2022-11-15T06:06:30;21.40;32.70
49184;DHT22;35021;49.214;12.270;2022-11-15T06:08:57;21.40;32.60
49184;DHT22;35021;49.214;12.270;2022-11-15T06:11:24;21.40;32.70
49184;DHT22;35021;49.214;12.270;2022-11-15T06:13:51;21.30;32.80
49184;DHT22;35021;49.214;12.270;2022-11-15T06:16:17;21.30;32.90
49184;DHT22;35021;49.214;12.270;2022-11-15T06:18:44;21.30;32.90
49184;DHT22;35021;49.214;12.270;2022-11-15T06:21:11;21.20;32.90
49184;DHT22;35021;49.214;12.270;2022-11-15T06:23:38;21.30;32.90
49184;DHT22;35021;49.214;12.270;2022-11-15T06:26:05;21.30;32.90
49184;DHT22;35021;49.214;12.270;2022-11-15T06:28:32;21.30;32.80
49184;DHT22;35021;49.214;12.270;2022-11-15T06:31:08;21.30;32.80
49184;DHT22;35021;49.214;12.270;2022-11-15T06:33:38;21.40;32.80
49184;DHT22;35021;49.214;12.270;2022-11-15T06:36:08;21.40;32.70
49184;DHT22;35021;49.214;12.270;2022-11-15T06:38:44;21.40;32.70
49184;DHT22;35021;49.214;12.270;2022-11-15T06:41:12;21.40;33.40
49184;DHT22;35021;49.214;12.270;2022-11-15T06:43:39;21.40;32.70
49184;DHT22;35021;49.214;12.270;2022-11-15T06:46:09;21.40;32.60
49184;DHT22;35021;49.214;12.270;2022-11-15T06:48:35;21.40;32.70
49184;DHT22;35021;49.214;12.270;2022-11-15T06:51:04;21.40;32.70
49184;DHT22;35021;49.214;12.270;2022-11-15T06:53:31;21.40;32.70
49184;DHT22;35021;49.214;12.270;2022-11-15T06:56:01;21.40;32.70
49184;DHT22;35021;49.214;12.270;2022-11-15T06:58:28;21.30;32.80
49184;DHT22;35021;49.214;12.270;2022-11-15T07:01:05;21.30;32.80
49184;DHT22;35021;49.214;12.270;2022-11-15T07:03:34;21.30;32.80
49184;DHT22;35021;49.214;12.270;2022-11-15T07:06:02;21.30;33.50
49184;DHT22;35021;49.214;12.270;2022-11-15T07:08:34;21.30;32.80
49184;DHT22;35021;49.214;12.270;2022-11-15T07:11:02;21.30;32.70
49184;DHT22;35021;49.214;12.270;2022-11-15T07:13:31;21.30;32.60
49184;DHT22;35021;49.214;12.270;2022-11-15T07:16:07;21.40;32.60
49184;DHT22;35021;49.214;12.270;2022-11-15T07:18:38;21.40;32.40
49184;DHT22;35021;49.214;12.270;2022-11-15T07:21:07;21.40;32.30
49184;DHT22;35021;49.214;12.270;2022-11-15T07:23:38;21.50;32.30
49184;DHT22;35021;49.214;12.270;2022-11-15T07:26:07;21.50;32.30
49184;DHT22;35021;49.214;12.270;2022-11-15T07:28:34;21.50;32.30
49184;DHT22;35021;49.214;12.270;2022-11-15T07:31:06;21.50;32.30
49184;DHT22;35021;49.214;12.270;2022-11-15T07:33:34;21.50;32.30
49184;DHT22;35021;49.214;12.270;2022-11-15T07:36:02;21.50;32.30
49184;DHT22;35021;49.214;12.270;2022-11-15T07:38:30;21.40;32.40
49184;DHT22;35021;49.214;12.270;2022-11-15T07:41:03;21.40;32.60
49184;DHT22;35021;49.214;12.270;2022-11-15T07:43:30;21.30;32.70
49184;DHT22;35021;49.214;12.270;2022-11-15T07:46:07;21.20;32.80
49184;DHT22;35021;49.214;12.270;2022-11-15T07:48:37;21.20;32.80
49184;DHT22;35021;49.214;12.270;2022-11-15T07:51:12;21.20;32.80
49184;DHT22;35021;49.214;12.270;2022-11-15T07:53:41;21.20;32.90
49184;DHT22;35021;49.214;12.270;2022-11-15T07:56:08;21.20;32.90
49184;DHT22;35021;49.214;12.270;2022-11-15T07:58:35;21.30;32.90
49184;DHT22;35021;49.214;12.270;2022-11-15T08:01:07;21.30;32.80
49184;DHT22;35021;49.214;12.270;2022-11-15T08:03:36;21.30;32.80
49184;DHT22;35021;49.214;12.270;2022-11-15T08:06:03;21.30;32.70
49184;DHT22;35021;49.214;12.270;2022-11-15T08:08:30;21.40;32.70
49184;DHT22;35021;49.214;12.270;2022-11-15T08:10:58;21.40;32.70
49184;DHT22;35021;49.214;12.270;2022-11-15T08:13:25;21.40;32.70
49184;DHT22;35021;49.214;12.270;2022-11-15T08:16:00;21.50;32.80
49184;DHT22;35021;49.214;12.270;2022-11-15T08:18:27;21.50;32.70
49184;DHT22;35021;49.214;12.270;2022-11-15T08:20:58;21.50;32.70
49184;DHT22;35021;49.214;12.270;2022-11-15T08:23:25;21.40;32.80
49184;DHT22;35021;49.214;12.270;2022-11-15T08:25:52;21.40;32.80
49184;DHT22;35021;49.214;12.270;2022-11-15T08:28:19;21.40;32.90
49184;DHT22;35021;49.214;12.270;2022-11-15T08:30:46;21.40;33.10
49184;DHT22;35021;49.214;12.270;2022-11-15T08:33:13;21.40;33.20
49184;DHT22;35021;49.214;12.270;2022-11-15T08:35:41;21.40;33.30
49184;DHT22;35021;49.214;12.270;2022-11-15T08:38:09;21.40;34.00
49184;DHT22;35021;49.214;12.270;2022-11-15T08:40:36;21.40;33.30
49184;DHT22;35021;49.214;12.270;2022-11-15T08:43:03;21.50;33.30
49184;DHT22;35021;49.214;12.270;2022-11-15T08:45:30;21.50;33.30
49184;DHT22;35021;49.214;12.270;2022-11-15T08:47:58;21.60;33.30
49184;DHT22;35021;49.214;12.270;2022-11-15T08:50:26;21.60;33.20
49184;DHT22;35021;49.214;12.270;2022-11-15T08:52:53;21.70;33.20
49184;DHT22;35021;49.214;12.270;2022-11-15T08:55:20;21.70;33.20
49184;DHT22;35021;49.214;12.270;2022-11-15T08:57:50;21.80;33.30
49184;DHT22;35021;49.214;12.270;2022-11-15T09:00:17;21.80;33.30
49184;DHT22;35021;49.214;12.270;2022-11-15T09:02:46;21.80;33.30
49184;DHT22;35021;49.214;12.270;2022-11-15T09:05:13;21.80;33.20
49184;DHT22;35021;49.214;12.270;2022-11-15T09:07:42;21.90;33.30
49184;DHT22;35021;49.214;12.270;2022-11-15T09:10:10;21.90;33.30
49184;DHT22;35021;49.214;12.270;2022-11-15T09:12:36;21.90;33.30
49184;DHT22;35021;49.214;12.270;2022-11-15T09:15:04;21.80;33.30
49184;DHT22;35021;49.214;12.270;2022-11-15T09:17:31;21.80;33.40
49184;DHT22;35021;49.214;12.270;2022-11-15T09:19:58;21.70;33.50
49184;DHT22;35021;49.214;12.270;2022-11-15T09:22:25;21.70;33.70
49184;DHT22;35021;49.214;12.270;2022-11-15T09:24:52;21.60;33.80
49184;DHT22;35021;49.214;12.270;2022-11-15T09:27:19;21.60;33.90
49184;DHT22;35021;49.214;12.270;2022-11-15T09:29:46;21.60;33.90
49184;DHT22;35021;49.214;12.270;2022-11-15T09:32:12;21.60;34.00
49184;DHT22;35021;49.214;12.270;2022-11-15T09:34:39;21.70;34.10
49184;DHT22;35021;49.214;12.270;2022-11-15T09:37:06;21.70;34.10
49184;DHT22;35021;49.214;12.270;2022-11-15T09:39:33;21.70;34.10
49184;DHT22;35021;49.214;12.270;2022-11-15T09:42:04;21.80;34.20
49184;DHT22;35021;49.214;12.270;2022-11-15T09:50:40;21.90;34.40
49184;DHT22;35021;49.214;12.270;2022-11-15T09:53:11;22.00;34.40
49184;DHT22;35021;49.214;12.270;2022-11-15T09:56:00;22.00;34.40
49184;DHT22;35021;49.214;12.270;2022-11-15T09:58:36;22.10;35.20
49184;DHT22;35021;49.214;12.270;2022-11-15T10:01:17;22.10;34.50
49184;DHT22;35021;49.214;12.270;2022-11-15T10:03:45;22.20;34.40
49184;DHT22;35021;49.214;12.270;2022-11-15T10:06:26;22.20;34.50
49184;DHT22;35021;49.214;12.270;2022-11-15T10:11:26;22.30;34.60
49184;DHT22;35021;49.214;12.270;2022-11-15T10:14:24;22.30;34.70
49184;DHT22;35021;49.214;12.270;2022-11-15T10:24:48;22.50;34.90
49184;DHT22;35021;49.214;12.270;2022-11-15T10:27:18;22.50;35.00
49184;DHT22;35021;49.214;12.270;2022-11-15T10:29:48;22.50;35.10
49184;DHT22;35021;49.214;12.270;2022-11-15T10:32:18;22.60;35.20
49184;DHT22;35021;49.214;12.270;2022-11-15T10:34:46;22.60;35.30
49184;DHT22;35021;49.214;12.270;2022-11-15T10:37:13;22.60;35.20
49184;DHT22;35021;49.214;12.270;2022-11-15T10:39:40;22.60;35.20
49184;DHT22;35021;49.214;12.270;2022-11-15T10:42:27;22.70;35.20
49184;DHT22;35021;49.214;12.270;2022-11-15T10:44:54;22.70;35.30
49184;DHT22;35021;49.214;12.270;2022-11-15T10:47:29;22.80;35.30
49184;DHT22;35021;49.214;12.270;2022-11-15T10:50:27;22.80;35.30
49184;DHT22;35021;49.214;12.270;2022-11-15T10:52:55;22.80;35.40
49184;DHT22;35021;49.214;12.270;2022-11-15T10:55:30;22.80;35.30
49184;DHT22;35021;49.214;12.270;2022-11-15T10:58:30;22.90;35.30
49184;DHT22;35021;49.214;12.270;2022-11-15T11:01:19;22.90;35.30
49184;DHT22;35021;49.214;12.270;2022-11-15T11:04:07;22.90;35.30
49184;DHT22;35021;49.214;12.270;2022-11-15T11:06:52;22.90;35.30
49184;DHT22;35021;49.214;12.270;2022-11-15T11:09:34;22.90;35.40
49184;DHT22;35021;49.214;12.270;2022-11-15T11:12:04;22.90;35.50
49184;DHT22;35021;49.214;12.270;2022-11-15T11:14:36;22.90;35.60
49184;DHT22;35021;49.214;12.270;2022-11-15T11:17:24;22.90;35.60
49184;DHT22;35021;49.214;12.270;2022-11-15T11:22:58;22.90;35.70
49184;DHT22;35021;49.214;12.270;2022-11-15T11:25:39;22.80;35.70
49184;DHT22;35021;49.214;12.270;2022-11-15T11:34:09;22.80;36.20
49184;DHT22;35021;49.214;12.270;2022-11-15T11:36:41;22.70;36.30
49184;DHT22;35021;49.214;12.270;2022-11-15T11:42:24;22.70;36.50
49184;DHT22;35021;49.214;12.270;2022-11-15T11:48:14;22.60;36.60
49184;DHT22;35021;49.214;12.270;2022-11-15T11:50:42;22.60;36.70
49184;DHT22;35021;49.214;12.270;2022-11-15T11:53:31;22.60;36.80
49184;DHT22;35021;49.214;12.270;2022-11-15T11:56:04;22.50;36.80
49184;DHT22;35021;49.214;12.270;2022-11-15T11:58:40;22.50;36.90
49184;DHT22;35021;49.214;12.270;2022-11-15T12:01:28;22.50;37.00
49184;DHT22;35021;49.214;12.270;2022-11-15T12:04:17;22.50;37.20
49184;DHT22;35021;49.214;12.270;2022-11-15T12:07:07;22.40;37.20
49184;DHT22;35021;49.214;12.270;2022-11-15T12:12:16;22.40;37.40
49184;DHT22;35021;49.214;12.270;2022-11-15T12:14:49;22.40;37.50
49184;DHT22;35021;49.214;12.270;2022-11-15T12:17:21;22.40;37.60
49184;DHT22;35021;49.214;12.270;2022-11-15T12:19:49;22.40;37.60
49184;DHT22;35021;49.214;12.270;2022-11-15T12:22:22;22.40;37.70
49184;DHT22;35021;49.214;12.270;2022-11-15T12:25:04;22.50;37.70
49184;DHT22;35021;49.214;12.270;2022-11-15T12:27:41;22.50;37.70
49184;DHT22;35021;49.214;12.270;2022-11-15T12:30:19;22.60;37.60
49184;DHT22;35021;49.214;12.270;2022-11-15T12:32:52;22.60;37.50
49184;DHT22;35021;49.214;12.270;2022-11-15T12:35:41;22.70;37.60
49184;DHT22;35021;49.214;12.270;2022-11-15T12:38:10;22.80;37.50
49184;DHT22;35021;49.214;12.270;2022-11-15T12:40:39;22.90;37.50
49184;DHT22;35021;49.214;12.270;2022-11-15T12:43:36;22.90;37.50
49184;DHT22;35021;49.214;12.270;2022-11-15T12:46:05;22.90;37.50
49184;DHT22;35021;49.214;12.270;2022-11-15T12:51:02;23.00;37.60
49184;DHT22;35021;49.214;12.270;2022-11-15T12:53:33;23.00;37.70
49184;DHT22;35021;49.214;12.270;2022-11-15T12:59:00;22.90;37.80
49184;DHT22;35021;49.214;12.270;2022-11-15T13:04:25;22.90;38.00
49184;DHT22;35021;49.214;12.270;2022-11-15T13:06:56;22.80;38.10
49184;DHT22;35021;49.214;12.270;2022-11-15T13:12:11;22.80;38.30
49184;DHT22;35021;49.214;12.270;2022-11-15T13:15:31;22.70;38.30
49184;DHT22;35021;49.214;12.270;2022-11-15T13:18:38;22.70;38.40
49184;DHT22;35021;49.214;12.270;2022-11-15T13:21:19;22.60;38.50
49184;DHT22;35021;49.214;12.270;2022-11-15T13:24:12;22.60;38.60
49184;DHT22;35021;49.214;12.270;2022-11-15T13:26:40;22.60;38.70
49184;DHT22;35021;49.214;12.270;2022-11-15T13:29:16;22.50;38.60
49184;DHT22;35021;49.214;12.270;2022-11-15T13:31:43;22.50;38.70
49184;DHT22;35021;49.214;12.270;2022-11-15T13:39:49;22.50;38.80
49184;DHT22;35021;49.214;12.270;2022-11-15T13:42:17;22.50;38.90
49184;DHT22;35021;49.214;12.270;2022-11-15T13:45:02;22.40;38.90
49184;DHT22;35021;49.214;12.270;2022-11-15T13:47:30;22.40;39.00
49184;DHT22;35021;49.214;12.270;2022-11-15T13:49:58;22.30;39.20
49184;DHT22;35021;49.214;12.270;2022-11-15T13:52:32;22.30;39.40
49184;DHT22;35021;49.214;12.270;2022-11-15T13:55:12;22.30;39.60
49184;DHT22;35021;49.214;12.270;2022-11-15T13:57:48;22.20;39.60
49184;DHT22;35021;49.214;12.270;2022-11-15T14:02:54;22.30;39.70
49184;DHT22;35021;49.214;12.270;2022-11-15T14:05:23;22.40;39.60
49184;DHT22;35021;49.214;12.270;2022-11-15T14:07:58;22.40;39.30
49184;DHT22;35021;49.214;12.270;2022-11-15T14:10:29;22.50;39.10
49184;DHT22;35021;49.214;12.270;2022-11-15T14:12:57;22.60;39.00
49184;DHT22;35021;49.214;12.270;2022-11-15T14:15:33;22.60;38.70
49184;DHT22;35021;49.214;12.270;2022-11-15T14:18:00;22.70;38.50
49184;DHT22;35021;49.214;12.270;2022-11-15T14:20:38;22.80;38.40
49184;DHT22;35021;49.214;12.270;2022-11-15T14:23:25;22.90;38.20
49184;DHT22;35021;49.214;12.270;2022-11-15T14:25:54;22.90;38.10
49184;DHT22;35021;49.214;12.270;2022-11-15T14:30:53;23.10;38.00
49184;DHT22;35021;49.214;12.270;2022-11-15T14:35:51;23.10;37.80
49184;DHT22;35021;49.214;12.270;2022-11-15T14:38:18;23.10;37.80
49184;DHT22;35021;49.214;12.270;2022-11-15T14:40:45;23.00;37.70
49184;DHT22;35021;49.214;12.270;2022-11-15T14:43:13;23.00;37.80
49184;DHT22;35021;49.214;12.270;2022-11-15T14:45:40;23.00;37.80
49184;DHT22;35021;49.214;12.270;2022-11-15T14:48:07;23.00;37.80
49184;DHT22;35021;49.214;12.270;2022-11-15T14:50:37;22.90;37.80
49184;DHT22;35021;49.214;12.270;2022-11-15T14:53:04;22.90;37.80
49184;DHT22;35021;49.214;12.270;2022-11-15T14:55:34;22.80;38.00
49184;DHT22;35021;49.214;12.270;2022-11-15T14:58:06;22.80;38.80
49184;DHT22;35021;49.214;12.270;2022-11-15T15:00:38;22.70;38.10
49184;DHT22;35021;49.214;12.270;2022-11-15T15:03:06;22.60;38.30
49184;DHT22;35021;49.214;12.270;2022-11-15T15:05:36;22.60;38.40
49184;DHT22;35021;49.214;12.270;2022-11-15T15:08:05;22.50;38.40
49184;DHT22;35021;49.214;12.270;2022-11-15T15:10:37;22.50;38.50
49184;DHT22;35021;49.214;12.270;2022-11-15T15:13:25;22.40;38.50
49184;DHT22;35021;49.214;12.270;2022-11-15T15:15:52;22.40;38.60
49184;DHT22;35021;49.214;12.270;2022-11-15T15:18:19;22.30;38.60
49184;DHT22;35021;49.214;12.270;2022-11-15T15:20:57;22.30;38.60
49184;DHT22;35021;49.214;12.270;2022-11-15T15:23:32;22.30;38.60
49184;DHT22;35021;49.214;12.270;2022-11-15T15:25:59;22.30;38.60
49184;DHT22;35021;49.214;12.270;2022-11-15T15:28:26;22.30;38.60
49184;DHT22;35021;49.214;12.270;2022-11-15T15:31:03;22.30;38.50
49184;DHT22;35021;49.214;12.270;2022-11-15T15:33:30;22.30;38.40
49184;DHT22;35021;49.214;12.270;2022-11-15T15:35:56;22.40;38.20
49184;DHT22;35021;49.214;12.270;2022-11-15T15:38:23;22.40;38.10
49184;DHT22;35021;49.214;12.270;2022-11-15T15:40:50;22.40;38.00
49184;DHT22;35021;49.214;12.270;2022-11-15T15:43:17;22.50;37.90
49184;DHT22;35021;49.214;12.270;2022-11-15T15:45:44;22.50;37.80
49184;DHT22;35021;49.214;12.270;2022-11-15T15:48:14;22.50;37.60
49184;DHT22;35021;49.214;12.270;2022-11-15T15:50:42;22.50;37.50
49184;DHT22;35021;49.214;12.270;2022-11-15T15:53:12;22.60;37.50
49184;DHT22;35021;49.214;12.270;2022-11-15T15:55:39;22.60;37.40
49184;DHT22;35021;49.214;12.270;2022-11-15T15:58:06;22.60;37.30
49184;DHT22;35021;49.214;12.270;2022-11-15T16:00:34;22.60;37.20
49184;DHT22;35021;49.214;12.270;2022-11-15T16:03:02;22.70;37.30
49184;DHT22;35021;49.214;12.270;2022-11-15T16:05:29;22.70;37.20
49184;DHT22;35021;49.214;12.270;2022-11-15T16:07:56;22.70;37.10
49184;DHT22;35021;49.214;12.270;2022-11-15T16:10:25;22.80;37.10
49184;DHT22;35021;49.214;12.270;2022-11-15T16:12:54;22.80;37.00
49184;DHT22;35021;49.214;12.270;2022-11-15T16:15:22;22.80;36.90
49184;DHT22;35021;49.214;12.270;2022-11-15T16:17:55;22.90;36.90
49184;DHT22;35021;49.214;12.270;2022-11-15T16:22:57;22.90;36.70
49184;DHT22;35021;49.214;12.270;2022-11-15T16:25:24;22.90;36.60
49184;DHT22;35021;49.214;12.270;2022-11-15T16:27:51;22.90;36.50
49184;DHT22;35021;49.214;12.270;2022-11-15T16:30:20;22.90;36.40
49184;DHT22;35021;49.214;12.270;2022-11-15T16:32:47;23.00;36.40
49184;DHT22;35021;49.214;12.270;2022-11-15T16:35:15;23.00;36.40
49184;DHT22;35021;49.214;12.270;2022-11-15T16:37:42;22.90;36.30
49184;DHT22;35021;49.214;12.270;2022-11-15T16:40:30;22.90;36.30
49184;DHT22;35021;49.214;12.270;2022-11-15T16:43:01;22.90;36.30
49184;DHT22;35021;49.214;12.270;2022-11-15T16:45:30;22.80;36.30
49184;DHT22;35021;49.214;12.270;2022-11-15T16:47:57;22.80;36.30
49184;DHT22;35021;49.214;12.270;2022-11-15T16:50:27;22.80;36.40
49184;DHT22;35021;49.214;12.270;2022-11-15T16:52:56;22.70;36.40
49184;DHT22;35021;49.214;12.270;2022-11-15T16:55:26;22.70;36.40
49184;DHT22;35021;49.214;12.270;2022-11-15T16:57:54;22.60;36.40
49184;DHT22;35021;49.214;12.270;2022-11-15T17:00:21;22.60;36.30
49184;DHT22;35021;49.214;12.270;2022-11-15T17:02:49;22.60;36.20
49184;DHT22;35021;49.214;12.270;2022-11-15T17:05:18;22.60;36.20
49184;DHT22;35021;49.214;12.270;2022-11-15T17:07:47;22.60;36.00
49184;DHT22;35021;49.214;12.270;2022-11-15T17:10:16;22.70;36.00
49184;DHT22;35021;49.214;12.270;2022-11-15T17:12:43;22.70;35.90